sensor_id;sensor_type;location;lat;lon;timestamp;P1;durP1;ratioP1;P2;durP2;ratioP2
52294;SDS011;38243;53.212;6.574;2022-12-29T00:02:18;1.30;;;0.80;;
52294;SDS011;38243;53.212;6.574;2022-12-29T00:04:44;1.07;;;0.80;;
52294;SDS011;38243;53.212;6.574;2022-12-29T00:07:09;1.30;;;0.80;;
52294;SDS011;38243;53.212;6.574;2022-12-29T00:09:35;1.10;;;0.70;;
52294;SDS011;38243;53.212;6.574;2022-12-29T00:12:02;1.67;;;0.80;;
52294;SDS011;38243;53.212;6.574;2022-12-29T00:14:29;1.80;;;0.82;;
52294;SDS011;38243;53.212;6.574;2022-12-29T00:17:13;1.30;;;0.88;;
52294;SDS011;38243;53.212;6.574;2022-12-29T00:19:39;1.10;;;0.80;;
52294;SDS011;38243;53.212;6.574;2022-12-29T00:22:24;0.73;;;0.57;;
52294;SDS011;38243;53.212;6.574;2022-12-29T00:25:09;1.50;;;0.80;;
52294;SDS011;38243;53.212;6.574;2022-12-29T00:27:55;0.50;;;0.50;;
52294;SDS011;38243;53.212;6.574;2022-12-29T00:30:39;0.70;;;0.63;;
52294;SDS011;38243;53.212;6.574;2022-12-29T00:33:31;1.00;;;0.70;;
52294;SDS011;38243;53.212;6.574;2022-12-29T00:38:53;1.40;;;0.80;;
52294;SDS011;38243;53.212;6.574;2022-12-29T00:42:03;0.80;;;0.50;;
52294;SDS011;38243;53.212;6.574;2022-12-29T00:44:49;0.60;;;0.60;;
52294;SDS011;38243;53.212;6.574;2022-12-29T00:47:14;0.90;;;0.60;;
52294;SDS011;38243;53.212;6.574;2022-12-29T00:49:40;0.95;;;0.70;;
52294;SDS011;38243;53.212;6.574;2022-12-29T00:52:07;0.97;;;0.67;;
52294;SDS011;38243;53.212;6.574;2022-12-29T00:54:35;0.60;;;0.60;;
52294;SDS011;38243;53.212;6.574;2022-12-29T00:57:03;0.98;;;0.75;;
52294;SDS011;38243;53.212;6.574;2022-12-29T00:59:30;1.80;;;0.65;;
52294;SDS011;38243;53.212;6.574;2022-12-29T01:01:56;0.70;;;0.60;;
52294;SDS011;38243;53.212;6.574;2022-12-29T01:04:23;1.20;;;0.50;;
52294;SDS011;38243;53.212;6.574;2022-12-29T01:06:50;0.73;;;0.60;;
52294;SDS011;38243;53.212;6.574;2022-12-29T01:09:16;0.82;;;0.70;;
52294;SDS011;38243;53.212;6.574;2022-12-29T01:12:01;0.77;;;0.70;;
52294;SDS011;38243;53.212;6.574;2022-12-29T01:14:28;0.73;;;0.70;;
52294;SDS011;38243;53.212;6.574;2022-12-29T01:16:54;1.30;;;0.67;;
52294;SDS011;38243;53.212;6.574;2022-12-29T01:19:20;0.95;;;0.70;;
52294;SDS011;38243;53.212;6.574;2022-12-29T01:21:47;0.70;;;0.60;;
52294;SDS011;38243;53.212;6.574;2022-12-29T01:24:13;1.17;;;0.70;;
52294;SDS011;38243;53.212;6.574;2022-12-29T01:26:39;1.38;;;0.60;;
52294;SDS011;38243;53.212;6.574;2022-12-29T01:29:05;0.80;;;0.60;;
52294;SDS011;38243;53.212;6.574;2022-12-29T01:31:31;0.70;;;0.70;;
52294;SDS011;38243;53.212;6.574;2022-12-29T01:33:57;1.10;;;0.70;;
52294;SDS011;38243;53.212;6.574;2022-12-29T01:36:23;1.08;;;0.60;;
52294;SDS011;38243;53.212;6.574;2022-12-29T01:38:49;0.93;;;0.65;;
52294;SDS011;38243;53.212;6.574;2022-12-29T01:41:15;0.90;;;0.60;;
52294;SDS011;38243;53.212;6.574;2022-12-29T01:43:45;0.93;;;0.68;;
52294;SDS011;38243;53.212;6.574;2022-12-29T01:46:26;1.10;;;0.73;;
52294;SDS011;38243;53.212;6.574;2022-12-29T01:51:34;1.25;;;0.60;;
52294;SDS011;38243;53.212;6.574;2022-12-29T01:54:04;1.27;;;0.70;;
52294;SDS011;38243;53.212;6.574;2022-12-29T01:56:34;0.95;;;0.65;;
52294;SDS011;38243;53.212;6.574;2022-12-29T01:59:02;0.98;;;0.80;;
52294;SDS011;38243;53.212;6.574;2022-12-29T02:01:36;2.08;;;0.70;;
52294;SDS011;38243;53.212;6.574;2022-12-29T02:04:02;1.23;;;0.70;;
52294;SDS011;38243;53.212;6.574;2022-12-29T02:06:29;2.72;;;0.60;;
52294;SDS011;38243;53.212;6.574;2022-12-29T02:09:00;0.90;;;0.60;;
52294;SDS011;38243;53.212;6.574;2022-12-29T02:11:26;1.15;;;0.70;;
52294;SDS011;38243;53.212;6.574;2022-12-29T02:13:53;1.38;;;0.65;;
52294;SDS011;38243;53.212;6.574;2022-12-29T02:22:00;1.10;;;0.75;;
52294;SDS011;38243;53.212;6.574;2022-12-29T02:27:29;0.50;;;0.50;;
52294;SDS011;38243;53.212;6.574;2022-12-29T02:41:33;0.90;;;0.50;;
52294;SDS011;38243;53.212;6.574;2022-12-29T02:44:28;0.88;;;0.60;;
52294;SDS011;38243;53.212;6.574;2022-12-29T02:49:46;1.05;;;0.63;;
52294;SDS011;38243;53.212;6.574;2022-12-29T02:52:23;1.45;;;0.60;;
52294;SDS011;38243;53.212;6.574;2022-12-29T02:54:53;1.30;;;0.65;;
52294;SDS011;38243;53.212;6.574;2022-12-29T02:59:45;1.83;;;0.70;;
52294;SDS011;38243;53.212;6.574;2022-12-29T03:05:04;1.92;;;0.57;;
52294;SDS011;38243;53.212;6.574;2022-12-29T03:08:04;1.47;;;0.63;;
52294;SDS011;38243;53.212;6.574;2022-12-29T03:16:31;1.10;;;0.50;;
52294;SDS011;38243;53.212;6.574;2022-12-29T03:19:06;0.98;;;0.50;;
52294;SDS011;38243;53.212;6.574;2022-12-29T03:21:41;0.90;;;0.50;;
52294;SDS011;38243;53.212;6.574;2022-12-29T03:24:31;0.90;;;0.40;;
52294;SDS011;38243;53.212;6.574;2022-12-29T03:27:02;0.85;;;0.50;;
52294;SDS011;38243;53.212;6.574;2022-12-29T03:29:32;0.90;;;0.50;;
52294;SDS011;38243;53.212;6.574;2022-12-29T03:32:01;0.90;;;0.50;;
52294;SDS011;38243;53.212;6.574;2022-12-29T03:34:29;1.05;;;0.52;;
52294;SDS011;38243;53.212;6.574;2022-12-29T03:37:00;1.42;;;0.50;;
52294;SDS011;38243;53.212;6.574;2022-12-29T03:39:34;1.30;;;0.52;;
52294;SDS011;38243;53.212;6.574;2022-12-29T03:42:04;0.88;;;0.50;;
52294;SDS011;38243;53.212;6.574;2022-12-29T03:44:34;0.98;;;0.50;;
52294;SDS011;38243;53.212;6.574;2022-12-29T03:47:02;2.00;;;0.43;;
52294;SDS011;38243;53.212;6.574;2022-12-29T03:49:28;1.20;;;0.50;;
52294;SDS011;38243;53.212;6.574;2022-12-29T03:51:54;0.80;;;0.30;;
52294;SDS011;38243;53.212;6.574;2022-12-29T03:54:19;1.00;;;0.40;;
52294;SDS011;38243;53.212;6.574;2022-12-29T03:56:45;1.13;;;0.60;;
52294;SDS011;38243;53.212;6.574;2022-12-29T03:59:11;2.03;;;0.60;;
52294;SDS011;38243;53.212;6.574;2022-12-29T04:01:37;1.90;;;0.57;;
52294;SDS011;38243;53.212;6.574;2022-12-29T04:04:03;1.60;;;0.55;;
52294;SDS011;38243;53.212;6.574;2022-12-29T04:06:29;1.00;;;0.47;;
52294;SDS011;38243;53.212;6.574;2022-12-29T04:08:54;1.27;;;0.40;;
52294;SDS011;38243;53.212;6.574;2022-12-29T04:11:20;1.50;;;0.47;;
52294;SDS011;38243;53.212;6.574;2022-12-29T04:13:46;1.60;;;0.60;;
52294;SDS011;38243;53.212;6.574;2022-12-29T04:16:12;1.63;;;0.57;;
52294;SDS011;38243;53.212;6.574;2022-12-29T04:18:38;1.10;;;0.50;;
52294;SDS011;38243;53.212;6.574;2022-12-29T04:21:04;1.10;;;0.50;;
52294;SDS011;38243;53.212;6.574;2022-12-29T04:23:31;1.95;;;0.40;;
52294;SDS011;38243;53.212;6.574;2022-12-29T04:25:58;1.30;;;0.50;;
52294;SDS011;38243;53.212;6.574;2022-12-29T04:28:24;1.87;;;0.53;;
52294;SDS011;38243;53.212;6.574;2022-12-29T04:30:50;1.58;;;0.60;;
52294;SDS011;38243;53.212;6.574;2022-12-29T04:33:16;1.07;;;0.40;;
52294;SDS011;38243;53.212;6.574;2022-12-29T04:35:42;1.00;;;0.47;;
52294;SDS011;38243;53.212;6.574;2022-12-29T04:38:09;1.27;;;0.45;;
52294;SDS011;38243;53.212;6.574;2022-12-29T04:40:35;2.15;;;0.60;;
52294;SDS011;38243;53.212;6.574;2022-12-29T04:43:04;3.17;;;0.57;;
52294;SDS011;38243;53.212;6.574;2022-12-29T04:45:30;3.75;;;0.60;;
52294;SDS011;38243;53.212;6.574;2022-12-29T04:47:56;4.67;;;0.70;;
52294;SDS011;38243;53.212;6.574;2022-12-29T04:50:22;2.10;;;0.70;;
52294;SDS011;38243;53.212;6.574;2022-12-29T04:52:47;2.25;;;0.70;;
52294;SDS011;38243;53.212;6.574;2022-12-29T04:55:13;2.03;;;0.80;;
52294;SDS011;38243;53.212;6.574;2022-12-29T04:57:39;3.80;;;0.68;;
52294;SDS011;38243;53.212;6.574;2022-12-29T05:00:05;4.47;;;0.80;;
52294;SDS011;38243;53.212;6.574;2022-12-29T05:02:31;3.15;;;0.70;;
52294;SDS011;38243;53.212;6.574;2022-12-29T05:04:57;4.20;;;0.60;;
52294;SDS011;38243;53.212;6.574;2022-12-29T05:07:22;2.60;;;0.60;;
52294;SDS011;38243;53.212;6.574;2022-12-29T05:09:50;3.17;;;0.73;;
52294;SDS011;38243;53.212;6.574;2022-12-29T05:12:15;3.35;;;0.60;;
52294;SDS011;38243;53.212;6.574;2022-12-29T05:14:41;4.17;;;0.80;;
52294;SDS011;38243;53.212;6.574;2022-12-29T05:17:07;2.47;;;0.68;;
52294;SDS011;38243;53.212;6.574;2022-12-29T05:19:32;4.00;;;0.90;;
52294;SDS011;38243;53.212;6.574;2022-12-29T05:21:58;2.20;;;0.80;;
52294;SDS011;38243;53.212;6.574;2022-12-29T05:24:24;4.60;;;1.00;;
52294;SDS011;38243;53.212;6.574;2022-12-29T05:26:50;2.93;;;0.73;;
52294;SDS011;38243;53.212;6.574;2022-12-29T05:29:15;4.57;;;1.00;;
52294;SDS011;38243;53.212;6.574;2022-12-29T05:31:41;5.50;;;1.05;;
52294;SDS011;38243;53.212;6.574;2022-12-29T05:34:08;11.33;;;1.40;;
52294;SDS011;38243;53.212;6.574;2022-12-29T05:36:35;5.32;;;1.05;;
52294;SDS011;38243;53.212;6.574;2022-12-29T05:39:01;6.67;;;1.13;;
52294;SDS011;38243;53.212;6.574;2022-12-29T05:41:27;6.07;;;1.15;;
52294;SDS011;38243;53.212;6.574;2022-12-29T05:43:53;7.07;;;1.20;;
52294;SDS011;38243;53.212;6.574;2022-12-29T05:46:19;5.60;;;1.00;;
52294;SDS011;38243;53.212;6.574;2022-12-29T05:48:44;7.45;;;1.60;;
52294;SDS011;38243;53.212;6.574;2022-12-29T05:51:10;6.93;;;1.38;;
52294;SDS011;38243;53.212;6.574;2022-12-29T05:53:36;6.37;;;1.60;;
52294;SDS011;38243;53.212;6.574;2022-12-29T05:56:01;8.25;;;1.38;;
52294;SDS011;38243;53.212;6.574;2022-12-29T05:58:27;5.03;;;1.50;;
52294;SDS011;38243;53.212;6.574;2022-12-29T06:00:53;6.67;;;1.60;;
52294;SDS011;38243;53.212;6.574;2022-12-29T06:03:19;8.07;;;1.60;;
52294;SDS011;38243;53.212;6.574;2022-12-29T06:05:45;11.95;;;2.15;;
52294;SDS011;38243;53.212;6.574;2022-12-29T06:08:11;28.27;;;3.78;;
52294;SDS011;38243;53.212;6.574;2022-12-29T06:10:37;22.88;;;3.47;;
52294;SDS011;38243;53.212;6.574;2022-12-29T06:13:03;17.35;;;3.15;;
52294;SDS011;38243;53.212;6.574;2022-12-29T06:15:33;15.13;;;2.78;;
52294;SDS011;38243;53.212;6.574;2022-12-29T06:18:00;13.88;;;2.72;;
52294;SDS011;38243;53.212;6.574;2022-12-29T06:20:26;9.65;;;2.00;;
52294;SDS011;38243;53.212;6.574;2022-12-29T06:22:51;11.90;;;2.20;;
52294;SDS011;38243;53.212;6.574;2022-12-29T06:25:17;10.07;;;1.88;;
52294;SDS011;38243;53.212;6.574;2022-12-29T06:27:43;13.27;;;2.15;;
52294;SDS011;38243;53.212;6.574;2022-12-29T06:30:09;8.63;;;2.15;;
52294;SDS011;38243;53.212;6.574;2022-12-29T06:32:36;7.45;;;2.10;;
52294;SDS011;38243;53.212;6.574;2022-12-29T06:35:02;10.77;;;1.85;;
52294;SDS011;38243;53.212;6.574;2022-12-29T06:37:29;8.90;;;1.80;;
52294;SDS011;38243;53.212;6.574;2022-12-29T06:39:55;8.82;;;1.73;;
52294;SDS011;38243;53.212;6.574;2022-12-29T06:42:21;8.60;;;1.90;;
52294;SDS011;38243;53.212;6.574;2022-12-29T06:44:46;9.60;;;1.80;;
52294;SDS011;38243;53.212;6.574;2022-12-29T06:47:12;8.27;;;1.98;;
52294;SDS011;38243;53.212;6.574;2022-12-29T06:49:38;6.80;;;1.70;;
52294;SDS011;38243;53.212;6.574;2022-12-29T06:52:04;7.20;;;1.90;;
52294;SDS011;38243;53.212;6.574;2022-12-29T06:54:30;7.28;;;1.70;;
52294;SDS011;38243;53.212;6.574;2022-12-29T06:56:56;8.80;;;1.77;;
52294;SDS011;38243;53.212;6.574;2022-12-29T06:59:23;7.45;;;1.92;;
52294;SDS011;38243;53.212;6.574;2022-12-29T07:01:49;7.05;;;1.60;;
52294;SDS011;38243;53.212;6.574;2022-12-29T07:04:15;8.65;;;2.00;;
52294;SDS011;38243;53.212;6.574;2022-12-29T07:06:41;8.25;;;2.10;;
52294;SDS011;38243;53.212;6.574;2022-12-29T07:09:07;7.72;;;2.10;;
52294;SDS011;38243;53.212;6.574;2022-12-29T07:11:34;11.43;;;2.05;;
52294;SDS011;38243;53.212;6.574;2022-12-29T07:14:00;6.93;;;1.70;;
52294;SDS011;38243;53.212;6.574;2022-12-29T07:16:26;8.70;;;1.80;;
52294;SDS011;38243;53.212;6.574;2022-12-29T07:18:54;7.43;;;1.90;;
52294;SDS011;38243;53.212;6.574;2022-12-29T07:21:20;9.68;;;1.65;;
52294;SDS011;38243;53.212;6.574;2022-12-29T07:23:46;9.57;;;2.15;;
52294;SDS011;38243;53.212;6.574;2022-12-29T07:26:12;8.83;;;2.10;;
52294;SDS011;38243;53.212;6.574;2022-12-29T07:28:39;9.63;;;1.92;;
52294;SDS011;38243;53.212;6.574;2022-12-29T07:31:11;7.45;;;1.70;;
52294;SDS011;38243;53.212;6.574;2022-12-29T07:33:45;7.88;;;2.05;;
52294;SDS011;38243;53.212;6.574;2022-12-29T07:36:12;9.53;;;2.17;;
52294;SDS011;38243;53.212;6.574;2022-12-29T07:38:39;8.57;;;1.77;;
52294;SDS011;38243;53.212;6.574;2022-12-29T07:41:05;8.15;;;2.00;;
52294;SDS011;38243;53.212;6.574;2022-12-29T07:43:31;7.75;;;1.88;;
52294;SDS011;38243;53.212;6.574;2022-12-29T07:45:56;7.13;;;2.00;;
52294;SDS011;38243;53.212;6.574;2022-12-29T07:48:22;7.97;;;2.00;;
52294;SDS011;38243;53.212;6.574;2022-12-29T07:50:48;9.97;;;2.37;;
52294;SDS011;38243;53.212;6.574;2022-12-29T07:53:14;8.20;;;2.03;;
52294;SDS011;38243;53.212;6.574;2022-12-29T07:55:40;8.95;;;2.10;;
52294;SDS011;38243;53.212;6.574;2022-12-29T07:58:06;9.20;;;2.15;;
52294;SDS011;38243;53.212;6.574;2022-12-29T08:00:32;8.17;;;2.23;;
52294;SDS011;38243;53.212;6.574;2022-12-29T08:02:58;9.30;;;1.90;;
52294;SDS011;38243;53.212;6.574;2022-12-29T08:05:24;7.17;;;1.80;;
52294;SDS011;38243;53.212;6.574;2022-12-29T08:07:50;8.25;;;2.05;;
52294;SDS011;38243;53.212;6.574;2022-12-29T08:10:16;8.45;;;2.15;;
52294;SDS011;38243;53.212;6.574;2022-12-29T08:12:42;9.85;;;2.10;;
52294;SDS011;38243;53.212;6.574;2022-12-29T08:15:09;7.93;;;2.08;;
52294;SDS011;38243;53.212;6.574;2022-12-29T08:17:36;9.02;;;2.15;;
52294;SDS011;38243;53.212;6.574;2022-12-29T08:20:02;8.30;;;2.17;;
52294;SDS011;38243;53.212;6.574;2022-12-29T08:22:28;7.22;;;1.95;;
52294;SDS011;38243;53.212;6.574;2022-12-29T08:24:54;6.32;;;1.77;;
52294;SDS011;38243;53.212;6.574;2022-12-29T08:27:20;7.93;;;2.17;;
52294;SDS011;38243;53.212;6.574;2022-12-29T08:29:46;7.85;;;2.15;;
52294;SDS011;38243;53.212;6.574;2022-12-29T08:32:12;8.43;;;2.33;;
52294;SDS011;38243;53.212;6.574;2022-12-29T08:34:37;6.70;;;2.00;;
52294;SDS011;38243;53.212;6.574;2022-12-29T08:37:03;7.13;;;2.10;;
52294;SDS011;38243;53.212;6.574;2022-12-29T08:39:30;7.70;;;2.03;;
52294;SDS011;38243;53.212;6.574;2022-12-29T08:41:55;7.90;;;2.08;;
52294;SDS011;38243;53.212;6.574;2022-12-29T08:44:21;8.93;;;2.35;;
52294;SDS011;38243;53.212;6.574;2022-12-29T08:46:47;7.20;;;2.38;;
52294;SDS011;38243;53.212;6.574;2022-12-29T08:49:13;12.33;;;2.87;;
52294;SDS011;38243;53.212;6.574;2022-12-29T08:51:39;9.65;;;2.60;;
52294;SDS011;38243;53.212;6.574;2022-12-29T08:54:04;8.63;;;2.43;;
52294;SDS011;38243;53.212;6.574;2022-12-29T08:56:30;11.18;;;2.88;;
52294;SDS011;38243;53.212;6.574;2022-12-29T08:58:56;8.95;;;2.53;;
52294;SDS011;38243;53.212;6.574;2022-12-29T09:01:22;10.73;;;2.80;;
52294;SDS011;38243;53.212;6.574;2022-12-29T09:03:48;11.77;;;3.10;;
52294;SDS011;38243;53.212;6.574;2022-12-29T09:06:14;10.90;;;2.40;;
52294;SDS011;38243;53.212;6.574;2022-12-29T09:08:41;10.85;;;2.83;;
52294;SDS011;38243;53.212;6.574;2022-12-29T09:11:16;9.97;;;2.57;;
52294;SDS011;38243;53.212;6.574;2022-12-29T09:13:44;9.68;;;2.40;;
52294;SDS011;38243;53.212;6.574;2022-12-29T09:16:10;11.55;;;2.70;;
52294;SDS011;38243;53.212;6.574;2022-12-29T09:18:36;11.43;;;2.60;;
52294;SDS011;38243;53.212;6.574;2022-12-29T09:21:03;11.15;;;2.60;;
52294;SDS011;38243;53.212;6.574;2022-12-29T09:23:30;12.82;;;3.30;;
52294;SDS011;38243;53.212;6.574;2022-12-29T09:25:56;11.70;;;2.88;;
52294;SDS011;38243;53.212;6.574;2022-12-29T09:28:22;13.27;;;3.17;;
52294;SDS011;38243;53.212;6.574;2022-12-29T09:30:48;11.52;;;2.80;;
52294;SDS011;38243;53.212;6.574;2022-12-29T09:33:15;10.77;;;2.83;;
52294;SDS011;38243;53.212;6.574;2022-12-29T09:35:41;12.25;;;2.80;;
52294;SDS011;38243;53.212;6.574;2022-12-29T09:38:08;12.47;;;3.07;;
52294;SDS011;38243;53.212;6.574;2022-12-29T09:40:34;11.18;;;2.90;;
52294;SDS011;38243;53.212;6.574;2022-12-29T09:45:40;10.17;;;2.47;;
52294;SDS011;38243;53.212;6.574;2022-12-29T09:48:12;9.70;;;2.63;;
52294;SDS011;38243;53.212;6.574;2022-12-29T09:50:49;11.67;;;2.80;;
52294;SDS011;38243;53.212;6.574;2022-12-29T09:56:13;10.07;;;2.40;;
52294;SDS011;38243;53.212;6.574;2022-12-29T10:01:32;10.15;;;2.55;;
52294;SDS011;38243;53.212;6.574;2022-12-29T10:04:03;9.18;;;2.65;;
52294;SDS011;38243;53.212;6.574;2022-12-29T10:06:39;8.30;;;2.20;;
52294;SDS011;38243;53.212;6.574;2022-12-29T10:12:02;9.38;;;2.40;;
52294;SDS011;38243;53.212;6.574;2022-12-29T10:21:17;7.88;;;2.20;;
52294;SDS011;38243;53.212;6.574;2022-12-29T10:24:03;9.98;;;2.50;;
52294;SDS011;38243;53.212;6.574;2022-12-29T10:26:36;8.55;;;2.40;;
52294;SDS011;38243;53.212;6.574;2022-12-29T10:31:58;7.93;;;2.30;;
52294;SDS011;38243;53.212;6.574;2022-12-29T10:34:26;6.97;;;2.15;;
52294;SDS011;38243;53.212;6.574;2022-12-29T10:37:10;7.78;;;2.00;;
52294;SDS011;38243;53.212;6.574;2022-12-29T10:39:44;7.85;;;2.45;;
52294;SDS011;38243;53.212;6.574;2022-12-29T10:42:24;7.05;;;2.03;;
52294;SDS011;38243;53.212;6.574;2022-12-29T10:45:02;7.93;;;2.33;;
52294;SDS011;38243;53.212;6.574;2022-12-29T10:47:32;6.95;;;1.90;;
52294;SDS011;38243;53.212;6.574;2022-12-29T10:50:02;5.97;;;1.98;;
52294;SDS011;38243;53.212;6.574;2022-12-29T10:52:29;7.65;;;2.10;;
52294;SDS011;38243;53.212;6.574;2022-12-29T10:55:20;7.50;;;2.08;;
52294;SDS011;38243;53.212;6.574;2022-12-29T10:57:50;7.27;;;2.13;;
52294;SDS011;38243;53.212;6.574;2022-12-29T11:00:17;6.68;;;2.15;;
52294;SDS011;38243;53.212;6.574;2022-12-29T11:08:33;6.10;;;1.90;;
52294;SDS011;38243;53.212;6.574;2022-12-29T11:11:04;7.22;;;2.33;;
52294;SDS011;38243;53.212;6.574;2022-12-29T11:13:32;7.47;;;2.15;;
52294;SDS011;38243;53.212;6.574;2022-12-29T11:15:59;7.63;;;2.15;;
52294;SDS011;38243;53.212;6.574;2022-12-29T11:18:26;6.82;;;1.90;;
52294;SDS011;38243;53.212;6.574;2022-12-29T11:21:03;6.17;;;1.90;;
52294;SDS011;38243;53.212;6.574;2022-12-29T11:26:12;6.53;;;1.90;;
52294;SDS011;38243;53.212;6.574;2022-12-29T11:28:42;7.68;;;1.83;;
52294;SDS011;38243;53.212;6.574;2022-12-29T11:31:10;7.85;;;1.90;;
52294;SDS011;38243;53.212;6.574;2022-12-29T11:33:40;7.70;;;2.30;;
52294;SDS011;38243;53.212;6.574;2022-12-29T11:36:16;5.77;;;2.00;;
52294;SDS011;38243;53.212;6.574;2022-12-29T11:38:48;5.68;;;1.90;;
52294;SDS011;38243;53.212;6.574;2022-12-29T11:41:24;6.05;;;1.83;;
52294;SDS011;38243;53.212;6.574;2022-12-29T11:43:52;6.80;;;2.10;;
52294;SDS011;38243;53.212;6.574;2022-12-29T11:46:39;6.80;;;2.17;;
52294;SDS011;38243;53.212;6.574;2022-12-29T11:49:12;6.30;;;2.25;;
52294;SDS011;38243;53.212;6.574;2022-12-29T11:51:44;6.43;;;2.22;;
52294;SDS011;38243;53.212;6.574;2022-12-29T11:54:34;8.68;;;2.60;;
52294;SDS011;38243;53.212;6.574;2022-12-29T11:57:13;7.35;;;2.42;;
52294;SDS011;38243;53.212;6.574;2022-12-29T11:59:57;7.35;;;2.20;;
52294;SDS011;38243;53.212;6.574;2022-12-29T12:05:16;9.43;;;2.45;;
52294;SDS011;38243;53.212;6.574;2022-12-29T12:08:02;9.57;;;2.50;;
52294;SDS011;38243;53.212;6.574;2022-12-29T12:10:43;8.77;;;2.65;;
52294;SDS011;38243;53.212;6.574;2022-12-29T12:13:34;6.95;;;2.25;;
52294;SDS011;38243;53.212;6.574;2022-12-29T12:16:22;9.45;;;2.60;;
52294;SDS011;38243;53.212;6.574;2022-12-29T12:18:55;11.07;;;2.80;;
52294;SDS011;38243;53.212;6.574;2022-12-29T12:26:53;7.60;;;2.28;;
52294;SDS011;38243;53.212;6.574;2022-12-29T12:32:18;8.15;;;2.30;;
52294;SDS011;38243;53.212;6.574;2022-12-29T12:34:50;7.85;;;2.30;;
52294;SDS011;38243;53.212;6.574;2022-12-29T12:57:34;12.57;;;2.55;;
52294;SDS011;38243;53.212;6.574;2022-12-29T13:00:00;11.23;;;2.40;;
52294;SDS011;38243;53.212;6.574;2022-12-29T13:15:58;8.80;;;2.35;;
52294;SDS011;38243;53.212;6.574;2022-12-29T13:26:52;6.13;;;1.98;;
52294;SDS011;38243;53.212;6.574;2022-12-29T13:29:24;9.35;;;2.00;;
52294;SDS011;38243;53.212;6.574;2022-12-29T13:35:33;8.57;;;1.98;;
52294;SDS011;38243;53.212;6.574;2022-12-29T13:37:58;7.60;;;2.10;;
52294;SDS011;38243;53.212;6.574;2022-12-29T13:40:49;8.85;;;1.90;;
52294;SDS011;38243;53.212;6.574;2022-12-29T13:43:19;9.60;;;1.90;;
52294;SDS011;38243;53.212;6.574;2022-12-29T13:45:46;12.07;;;2.25;;
52294;SDS011;38243;53.212;6.574;2022-12-29T13:48:22;6.72;;;2.00;;
52294;SDS011;38243;53.212;6.574;2022-12-29T13:50:55;7.72;;;1.80;;
52294;SDS011;38243;53.212;6.574;2022-12-29T13:53:42;6.85;;;1.95;;
52294;SDS011;38243;53.212;6.574;2022-12-29T13:56:32;6.03;;;1.80;;
52294;SDS011;38243;53.212;6.574;2022-12-29T14:04:59;7.63;;;1.95;;
52294;SDS011;38243;53.212;6.574;2022-12-29T14:07:26;6.40;;;2.03;;
52294;SDS011;38243;53.212;6.574;2022-12-29T14:09:54;6.53;;;2.00;;
52294;SDS011;38243;53.212;6.574;2022-12-29T14:15:14;6.90;;;2.10;;
52294;SDS011;38243;53.212;6.574;2022-12-29T14:17:59;7.13;;;1.95;;
52294;SDS011;38243;53.212;6.574;2022-12-29T14:20:30;6.28;;;1.85;;
52294;SDS011;38243;53.212;6.574;2022-12-29T14:23:01;7.20;;;1.92;;
52294;SDS011;38243;53.212;6.574;2022-12-29T14:25:58;5.30;;;1.67;;
52294;SDS011;38243;53.212;6.574;2022-12-29T14:28:31;7.57;;;2.20;;
52294;SDS011;38243;53.212;6.574;2022-12-29T14:30:59;7.50;;;1.80;;
52294;SDS011;38243;53.212;6.574;2022-12-29T14:33:27;5.28;;;1.50;;
52294;SDS011;38243;53.212;6.574;2022-12-29T14:35:55;8.15;;;1.85;;
52294;SDS011;38243;53.212;6.574;2022-12-29T14:38:23;5.20;;;1.52;;
52294;SDS011;38243;53.212;6.574;2022-12-29T14:41:15;6.10;;;1.70;;
52294;SDS011;38243;53.212;6.574;2022-12-29T14:43:51;5.40;;;1.60;;
52294;SDS011;38243;53.212;6.574;2022-12-29T14:46:20;6.85;;;1.70;;
52294;SDS011;38243;53.212;6.574;2022-12-29T14:48:46;8.02;;;1.90;;
52294;SDS011;38243;53.212;6.574;2022-12-29T14:51:20;6.10;;;1.67;;
52294;SDS011;38243;53.212;6.574;2022-12-29T14:56:56;5.40;;;1.52;;
52294;SDS011;38243;53.212;6.574;2022-12-29T14:59:24;6.25;;;1.80;;
52294;SDS011;38243;53.212;6.574;2022-12-29T15:01:52;6.80;;;1.70;;
52294;SDS011;38243;53.212;6.574;2022-12-29T15:04:24;7.38;;;1.83;;
52294;SDS011;38243;53.212;6.574;2022-12-29T15:06:55;8.50;;;2.05;;
52294;SDS011;38243;53.212;6.574;2022-12-29T15:09:31;7.20;;;2.00;;
52294;SDS011;38243;53.212;6.574;2022-12-29T15:15:00;5.28;;;1.88;;
52294;SDS011;38243;53.212;6.574;2022-12-29T15:17:28;7.82;;;1.90;;
52294;SDS011;38243;53.212;6.574;2022-12-29T15:19:56;6.22;;;1.85;;
52294;SDS011;38243;53.212;6.574;2022-12-29T15:22:23;5.50;;;1.92;;
52294;SDS011;38243;53.212;6.574;2022-12-29T15:24:54;6.82;;;1.83;;
52294;SDS011;38243;53.212;6.574;2022-12-29T15:27:23;7.32;;;1.92;;
52294;SDS011;38243;53.212;6.574;2022-12-29T15:29:58;7.93;;;2.15;;
52294;SDS011;38243;53.212;6.574;2022-12-29T15:32:38;8.02;;;2.00;;
52294;SDS011;38243;53.212;6.574;2022-12-29T15:37:55;8.65;;;1.80;;
52294;SDS011;38243;53.212;6.574;2022-12-29T15:40:23;5.93;;;1.73;;
52294;SDS011;38243;53.212;6.574;2022-12-29T15:45:25;4.90;;;1.50;;
52294;SDS011;38243;53.212;6.574;2022-12-29T15:47:57;6.30;;;1.80;;
52294;SDS011;38243;53.212;6.574;2022-12-29T15:50:27;5.50;;;1.58;;
52294;SDS011;38243;53.212;6.574;2022-12-29T15:52:55;6.20;;;1.75;;
52294;SDS011;38243;53.212;6.574;2022-12-29T15:55:32;6.33;;;1.80;;
52294;SDS011;38243;53.212;6.574;2022-12-29T15:58:01;8.75;;;1.92;;
52294;SDS011;38243;53.212;6.574;2022-12-29T16:00:33;5.50;;;1.70;;
52294;SDS011;38243;53.212;6.574;2022-12-29T16:03:03;6.30;;;1.65;;
52294;SDS011;38243;53.212;6.574;2022-12-29T16:05:34;6.50;;;1.80;;
52294;SDS011;38243;53.212;6.574;2022-12-29T16:08:02;7.45;;;1.80;;
52294;SDS011;38243;53.212;6.574;2022-12-29T16:10:38;6.75;;;1.58;;
52294;SDS011;38243;53.212;6.574;2022-12-29T16:15:58;5.82;;;1.65;;
52294;SDS011;38243;53.212;6.574;2022-12-29T16:18:28;5.53;;;1.80;;
52294;SDS011;38243;53.212;6.574;2022-12-29T16:20:57;6.30;;;1.80;;
52294;SDS011;38243;53.212;6.574;2022-12-29T16:23:24;5.50;;;1.60;;
52294;SDS011;38243;53.212;6.574;2022-12-29T16:25:53;6.10;;;1.65;;
52294;SDS011;38243;53.212;6.574;2022-12-29T16:28:29;5.97;;;1.58;;
52294;SDS011;38243;53.212;6.574;2022-12-29T16:31:16;5.40;;;1.65;;
52294;SDS011;38243;53.212;6.574;2022-12-29T16:33:46;6.90;;;1.75;;
52294;SDS011;38243;53.212;6.574;2022-12-29T16:36:51;4.32;;;1.42;;
52294;SDS011;38243;53.212;6.574;2022-12-29T16:41:59;5.18;;;1.60;;
52294;SDS011;38243;53.212;6.574;2022-12-29T16:49:24;4.72;;;1.52;;
52294;SDS011;38243;53.212;6.574;2022-12-29T16:51:52;3.83;;;1.40;;
52294;SDS011;38243;53.212;6.574;2022-12-29T16:54:24;5.95;;;2.08;;
52294;SDS011;38243;53.212;6.574;2022-12-29T16:56:53;10.43;;;4.10;;
52294;SDS011;38243;53.212;6.574;2022-12-29T17:01:55;49.28;;;13.20;;
52294;SDS011;38243;53.212;6.574;2022-12-29T17:04:21;70.75;;;18.50;;
52294;SDS011;38243;53.212;6.574;2022-12-29T17:06:47;66.60;;;17.63;;
52294;SDS011;38243;53.212;6.574;2022-12-29T17:09:20;62.07;;;17.47;;
52294;SDS011;38243;53.212;6.574;2022-12-29T17:11:47;70.07;;;17.63;;
52294;SDS011;38243;53.212;6.574;2022-12-29T17:16:57;55.50;;;16.67;;
52294;SDS011;38243;53.212;6.574;2022-12-29T17:19:34;54.20;;;14.77;;
52294;SDS011;38243;53.212;6.574;2022-12-29T17:22:03;52.95;;;15.23;;
52294;SDS011;38243;53.212;6.574;2022-12-29T17:24:34;50.47;;;14.43;;
52294;SDS011;38243;53.212;6.574;2022-12-29T17:27:01;46.73;;;13.77;;
52294;SDS011;38243;53.212;6.574;2022-12-29T17:29:32;42.07;;;11.97;;
52294;SDS011;38243;53.212;6.574;2022-12-29T17:32:02;40.88;;;12.00;;
52294;SDS011;38243;53.212;6.574;2022-12-29T17:34:36;39.58;;;11.85;;
52294;SDS011;38243;53.212;6.574;2022-12-29T17:37:02;32.53;;;10.82;;
52294;SDS011;38243;53.212;6.574;2022-12-29T17:39:28;32.70;;;10.38;;
52294;SDS011;38243;53.212;6.574;2022-12-29T17:41:54;31.17;;;9.50;;
52294;SDS011;38243;53.212;6.574;2022-12-29T17:44:20;36.37;;;10.33;;